createdAt,value
2017-10-02T00:01:14.778Z,66.62
2017-10-02T00:03:43.220Z,51.92
2017-10-02T00:06:12.359Z,48.45
2017-10-02T00:08:40.742Z,51.45
2017-10-02T00:11:09.382Z,67.68
2017-10-02T00:13:38.527Z,55.00
2017-10-02T00:16:06.907Z,53.17
2017-10-02T00:18:35.472Z,58.30
2017-10-02T00:21:03.852Z,59.47
2017-10-02T00:23:32.228Z,72.97
2017-10-02T00:26:00.662Z,68.47
2017-10-02T00:28:29.803Z,65.53
2017-10-02T00:30:58.182Z,72.53
2017-10-02T00:33:26.615Z,57.85
2017-10-02T00:35:55.750Z,58.75
2017-10-02T00:38:24.131Z,60.95
2017-10-02T00:40:52.578Z,47.17
2017-10-02T00:43:21.731Z,53.20
2017-10-02T00:45:50.119Z,48.30
2017-10-02T00:48:18.545Z,41.00
2017-10-02T00:50:46.929Z,44.13
2017-10-02T00:53:15.334Z,35.67
2017-10-02T00:55:43.767Z,53.47
2017-10-02T00:58:12.916Z,56.47
2017-10-02T01:00:41.298Z,66.35
2017-10-02T01:03:11.455Z,61.25
2017-10-02T01:05:41.669Z,57.42
2017-10-02T01:08:11.836Z,50.90
2017-10-02T01:10:42.782Z,48.17
2017-10-02T01:13:12.073Z,64.10
2017-10-02T01:15:40.464Z,40.50
2017-10-02T01:18:08.903Z,48.83
2017-10-02T01:20:38.047Z,43.92
2017-10-02T01:23:06.422Z,38.20
2017-10-02T01:25:34.983Z,37.92
2017-10-02T01:28:03.356Z,32.70
2017-10-02T01:30:31.820Z,33.40
2017-10-02T01:33:01.011Z,37.97
2017-10-02T01:35:30.154Z,48.25
2017-10-02T01:37:58.531Z,43.22
2017-10-02T01:40:26.955Z,39.03
2017-10-02T01:42:55.327Z,44.95
2017-10-02T01:45:23.703Z,31.98
2017-10-02T01:47:52.458Z,30.08
2017-10-02T01:50:20.840Z,40.28
2017-10-02T01:52:49.224Z,43.30
2017-10-02T01:55:17.655Z,39.70
2017-10-02T01:57:47.132Z,31.58
2017-10-02T02:00:15.522Z,37.22
2017-10-02T02:02:44.757Z,36.78
2017-10-02T02:05:13.136Z,34.70
2017-10-02T02:07:41.515Z,29.87
2017-10-02T02:10:10.052Z,30.73
2017-10-02T02:12:38.428Z,27.77
2017-10-02T02:15:06.804Z,30.25
2017-10-02T02:17:35.248Z,27.73
2017-10-02T02:20:03.621Z,24.65
2017-10-02T02:22:31.994Z,55.67
2017-10-02T02:25:00.421Z,58.28
2017-10-02T02:27:28.799Z,101.10
2017-10-02T02:29:57.179Z,24.35
2017-10-02T02:32:25.670Z,22.73
2017-10-02T02:34:54.819Z,27.55
2017-10-02T02:37:23.189Z,29.27
2017-10-02T02:39:51.614Z,28.12
2017-10-02T02:42:19.987Z,27.02
2017-10-02T02:44:48.355Z,26.20
2017-10-02T02:47:16.781Z,24.80
2017-10-02T02:49:45.146Z,24.52
2017-10-02T02:52:14.287Z,22.85
2017-10-02T02:54:43.025Z,22.75
2017-10-02T02:57:12.163Z,22.77
2017-10-02T02:59:40.542Z,19.23
2017-10-02T03:02:08.955Z,22.52
2017-10-02T03:04:37.334Z,31.05
2017-10-02T03:07:05.708Z,31.87
2017-10-02T03:09:34.135Z,26.42
2017-10-02T03:12:02.502Z,27.60
2017-10-02T03:14:30.866Z,34.38
2017-10-02T03:17:00.567Z,25.50
2017-10-02T03:19:29.706Z,18.48
2017-10-02T03:21:58.087Z,23.73
2017-10-02T03:24:26.509Z,22.83
2017-10-02T03:26:54.877Z,29.27
2017-10-02T03:29:23.246Z,23.42
2017-10-02T03:31:51.670Z,26.90
2017-10-02T03:34:20.814Z,21.35
2017-10-02T03:36:49.194Z,23.55
2017-10-02T03:39:17.661Z,22.40
2017-10-02T03:41:46.039Z,32.15
2017-10-02T03:44:14.409Z,36.15
2017-10-02T03:46:42.835Z,29.55
2017-10-02T03:49:11.293Z,32.17
2017-10-02T03:51:39.678Z,33.45
2017-10-02T03:54:08.117Z,38.28
2017-10-02T03:56:36.482Z,29.12
2017-10-02T03:59:05.641Z,34.75
2017-10-02T04:01:34.070Z,38.13
2017-10-02T04:04:02.442Z,29.77
2017-10-02T04:06:31.584Z,21.20
2017-10-02T04:09:00.039Z,24.83
2017-10-02T04:11:28.418Z,22.02
2017-10-02T04:13:56.799Z,20.67
2017-10-02T04:16:25.273Z,23.25
2017-10-02T04:18:53.780Z,38.08
2017-10-02T04:21:22.167Z,32.97
2017-10-02T04:23:50.591Z,34.65
2017-10-02T04:26:19.739Z,42.75
2017-10-02T04:28:48.120Z,38.58
2017-10-02T04:31:16.693Z,71.15
2017-10-02T04:33:45.070Z,58.60
2017-10-02T04:36:13.440Z,75.93
2017-10-02T04:38:41.866Z,148.57
2017-10-02T04:41:10.244Z,75.15
2017-10-02T04:43:38.730Z,89.75
2017-10-02T04:46:07.924Z,79.07
2017-10-02T04:48:37.071Z,34.95
2017-10-02T04:51:05.434Z,37.85
2017-10-02T04:53:33.876Z,43.58
2017-10-02T04:56:02.252Z,32.90
2017-10-02T04:58:30.628Z,61.60
2017-10-02T05:00:59.043Z,30.98
2017-10-02T05:03:27.453Z,48.15
2017-10-02T05:05:55.823Z,37.80
2017-10-02T05:08:24.313Z,41.35
2017-10-02T05:10:52.680Z,32.25
2017-10-02T05:13:21.061Z,28.23
2017-10-02T05:15:49.548Z,42.83
2017-10-02T05:18:17.923Z,21.27
2017-10-02T05:20:46.299Z,19.58
2017-10-02T05:23:14.731Z,18.08
2017-10-02T05:25:43.867Z,20.55
2017-10-02T05:28:12.267Z,18.35
2017-10-02T05:30:40.706Z,36.80
2017-10-02T05:33:09.732Z,30.75
2017-10-02T05:35:38.102Z,73.47
2017-10-02T05:38:06.520Z,39.05
2017-10-02T05:40:35.669Z,54.00
2017-10-02T05:43:04.057Z,65.00
2017-10-02T05:45:32.527Z,76.55
2017-10-02T05:48:00.928Z,111.50
2017-10-02T05:50:29.574Z,48.20
2017-10-02T05:52:58.017Z,55.70
2017-10-02T05:55:26.429Z,103.72
2017-10-02T05:57:54.816Z,25.37
2017-10-02T06:00:23.238Z,29.02
2017-10-02T06:02:51.608Z,26.02
2017-10-02T06:05:19.985Z,18.05
2017-10-02T06:07:48.402Z,13.60
2017-10-02T06:10:16.770Z,33.13
2017-10-02T06:12:45.154Z,40.30
2017-10-02T06:15:14.654Z,13.45
2017-10-02T06:17:43.034Z,15.80
2017-10-02T06:20:11.411Z,35.65
2017-10-02T06:22:40.619Z,10.00
2017-10-02T06:25:09.760Z,10.00
2017-10-02T06:27:38.148Z,10.68
2017-10-02T06:30:06.579Z,7.07
2017-10-02T06:32:35.719Z,7.07
2017-10-02T06:35:11.791Z,5.85
2017-10-02T06:37:41.075Z,5.25
2017-10-02T06:40:09.532Z,8.48
2017-10-02T06:42:37.913Z,8.23
2017-10-02T06:45:06.302Z,6.72
2017-10-02T06:47:34.751Z,10.37
2017-10-02T06:50:03.902Z,8.33
2017-10-02T06:52:32.282Z,7.53
2017-10-02T06:55:00.727Z,6.30
2017-10-02T06:57:29.100Z,9.93
2017-10-02T06:59:57.478Z,7.67
2017-10-02T07:02:25.909Z,9.23
2017-10-02T07:04:54.291Z,10.90
2017-10-02T07:07:22.706Z,9.90
2017-10-02T07:09:51.928Z,6.40
2017-10-02T07:12:20.304Z,8.67
2017-10-02T07:14:48.682Z,7.67
2017-10-02T07:17:17.160Z,8.57
2017-10-02T07:19:45.540Z,8.07
2017-10-02T07:22:13.941Z,13.27
2017-10-02T07:24:42.503Z,8.00
2017-10-02T07:27:10.900Z,12.53
2017-10-02T07:29:39.283Z,8.87
2017-10-02T07:32:07.711Z,10.33
2017-10-02T07:34:36.842Z,9.43
2017-10-02T07:37:05.245Z,6.30
2017-10-02T07:39:33.842Z,9.20
2017-10-02T07:42:02.212Z,6.27
2017-10-02T07:44:30.602Z,10.40
2017-10-02T07:46:59.043Z,11.23
2017-10-02T07:49:27.420Z,15.90
2017-10-02T07:51:55.805Z,7.03
2017-10-02T07:54:24.232Z,16.83
2017-10-02T07:56:52.611Z,7.63
2017-10-02T07:59:20.987Z,15.50
2017-10-02T08:01:49.647Z,5.30
2017-10-02T08:04:18.016Z,5.40
2017-10-02T08:06:46.395Z,17.53
2017-10-02T08:09:14.823Z,4.40
2017-10-02T08:11:43.204Z,5.23
2017-10-02T08:14:12.339Z,4.87
2017-10-02T08:16:40.772Z,10.23
2017-10-02T08:19:09.915Z,4.90
2017-10-02T08:21:38.286Z,3.63
2017-10-02T08:24:06.710Z,4.77
2017-10-02T08:26:35.243Z,6.70
2017-10-02T08:29:03.626Z,3.40
2017-10-02T08:31:32.054Z,16.90
2017-10-02T08:34:00.440Z,7.17
2017-10-02T08:36:28.836Z,12.57
2017-10-02T08:38:58.043Z,8.70
2017-10-02T08:41:26.427Z,5.60
2017-10-02T08:43:54.807Z,3.60
2017-10-02T08:46:23.557Z,3.10
2017-10-02T08:48:51.934Z,7.27
2017-10-02T08:51:20.312Z,2.87
2017-10-02T08:53:48.739Z,8.70
2017-10-02T08:56:17.186Z,2.80
2017-10-02T08:58:46.430Z,1.90
2017-10-02T09:01:14.898Z,1.33
2017-10-02T09:03:43.299Z,1.67
2017-10-02T09:06:11.709Z,1.70
2017-10-02T09:08:40.180Z,1.57
2017-10-02T09:11:08.626Z,1.27
2017-10-02T09:13:36.995Z,0.70
2017-10-02T09:16:05.875Z,0.70
2017-10-02T09:18:34.259Z,0.73
2017-10-02T09:21:02.637Z,2.30
2017-10-02T09:23:31.306Z,0.50
2017-10-02T09:25:59.679Z,2.87
2017-10-02T09:28:28.823Z,2.10
2017-10-02T09:30:57.295Z,0.73
2017-10-02T09:33:25.666Z,1.90
2017-10-02T09:35:54.051Z,0.50
2017-10-02T09:38:22.522Z,1.33
2017-10-02T09:40:50.927Z,0.70
2017-10-02T09:43:19.340Z,1.17
2017-10-02T09:45:48.526Z,2.10
2017-10-02T09:48:16.903Z,1.27
2017-10-02T09:50:45.300Z,0.70
2017-10-02T09:53:14.570Z,3.90
2017-10-02T09:55:42.963Z,2.17
2017-10-02T09:58:11.338Z,0.63
2017-10-02T10:00:39.789Z,7.10
2017-10-02T10:03:08.192Z,0.80
2017-10-02T10:05:36.591Z,1.33
2017-10-02T10:08:05.788Z,0.77
2017-10-02T10:10:34.933Z,0.80
2017-10-02T10:13:03.315Z,1.33
2017-10-02T10:15:31.738Z,0.90
2017-10-02T10:18:00.894Z,0.70
2017-10-02T10:20:29.271Z,1.17
2017-10-02T10:22:57.679Z,1.83
2017-10-02T10:25:26.069Z,0.50
2017-10-02T10:27:55.211Z,2.30
2017-10-02T10:30:23.863Z,1.43
2017-10-02T10:32:53.015Z,1.00
2017-10-02T10:35:21.393Z,3.33
2017-10-02T10:37:49.855Z,0.67
2017-10-02T10:40:18.359Z,4.03
2017-10-02T10:42:46.751Z,1.37
2017-10-02T10:45:15.184Z,1.80
2017-10-02T10:47:43.564Z,2.20
2017-10-02T10:50:11.941Z,1.07
2017-10-02T10:52:41.154Z,1.43
2017-10-02T10:55:09.533Z,7.17
2017-10-02T10:57:37.912Z,3.50
2017-10-02T11:00:06.351Z,8.10
2017-10-02T11:02:34.730Z,6.43
2017-10-02T11:05:03.105Z,2.97
2017-10-02T11:07:31.542Z,1.90
2017-10-02T11:09:59.931Z,2.23
2017-10-02T11:12:28.320Z,2.20
2017-10-02T11:14:56.966Z,1.80
2017-10-02T11:17:25.343Z,1.47
2017-10-02T11:19:53.733Z,2.20
2017-10-02T11:22:22.527Z,2.67
2017-10-02T11:24:50.940Z,3.17
2017-10-02T11:27:20.331Z,3.70
2017-10-02T11:29:49.567Z,2.13
2017-10-02T11:32:18.281Z,4.30
2017-10-02T11:34:46.666Z,5.80
2017-10-02T11:37:15.131Z,8.00
2017-10-02T11:39:43.510Z,1.10
2017-10-02T11:42:11.891Z,4.43
2017-10-02T11:44:40.335Z,4.17
2017-10-02T11:47:08.730Z,2.20
2017-10-02T11:49:38.293Z,1.23
2017-10-02T11:52:07.452Z,1.07
2017-10-02T11:54:35.870Z,2.30
2017-10-02T11:57:04.246Z,0.97
2017-10-02T11:59:32.671Z,12.10
2017-10-02T12:02:01.051Z,1.63
2017-10-02T12:04:29.552Z,5.13
2017-10-02T12:06:57.984Z,1.77
2017-10-02T12:09:26.355Z,2.40
2017-10-02T12:11:55.506Z,1.73
2017-10-02T12:14:23.942Z,2.50
2017-10-02T12:16:53.087Z,4.83
2017-10-02T12:19:21.463Z,2.37
2017-10-02T12:21:49.943Z,4.20
2017-10-02T12:24:18.339Z,3.20
2017-10-02T12:26:46.751Z,7.40
2017-10-02T12:29:16.088Z,2.23
2017-10-02T12:31:44.470Z,2.20
2017-10-02T12:34:12.853Z,4.77
2017-10-02T12:36:41.278Z,2.07
2017-10-02T12:39:10.418Z,2.10
2017-10-02T12:41:38.799Z,1.30
2017-10-02T12:44:07.239Z,2.50
2017-10-02T12:46:36.915Z,6.43
2017-10-02T12:49:06.846Z,2.57
2017-10-02T12:51:35.359Z,2.90
2017-10-02T12:54:03.771Z,3.17
2017-10-02T12:56:32.255Z,3.33
2017-10-02T12:59:00.671Z,3.20
2017-10-02T13:01:29.816Z,1.93
2017-10-02T13:03:58.199Z,6.63
2017-10-02T13:06:27.601Z,1.27
2017-10-02T13:08:56.094Z,4.50
2017-10-02T13:11:24.486Z,4.33
2017-10-02T13:13:53.662Z,2.40
2017-10-02T13:16:22.041Z,2.10
2017-10-02T13:18:50.443Z,2.70
2017-10-02T13:21:18.866Z,2.27
2017-10-02T13:23:47.299Z,8.70
2017-10-02T13:26:15.707Z,1.80
2017-10-02T13:28:44.900Z,3.13
2017-10-02T13:31:14.051Z,3.97
2017-10-02T13:33:42.432Z,2.25
2017-10-02T13:36:10.843Z,1.80
2017-10-02T13:38:39.222Z,1.42
2017-10-02T13:41:07.603Z,1.10
2017-10-02T13:43:36.036Z,1.27
2017-10-02T13:46:04.425Z,1.33
2017-10-02T13:48:32.835Z,3.37
2017-10-02T13:51:02.035Z,1.83
2017-10-02T13:53:30.424Z,2.92
2017-10-02T13:55:59.570Z,1.02
2017-10-02T13:58:28.574Z,1.05
2017-10-02T14:00:57.106Z,1.05
2017-10-02T14:03:26.281Z,0.88
2017-10-02T14:05:54.697Z,3.90
2017-10-02T14:08:23.092Z,5.37
2017-10-02T14:10:51.479Z,2.85
2017-10-02T14:13:19.968Z,6.87
2017-10-02T14:15:48.350Z,1.95
2017-10-02T14:18:16.737Z,2.55
2017-10-02T14:20:45.143Z,1.20
2017-10-02T14:23:13.517Z,3.65
2017-10-02T14:25:41.890Z,1.80
2017-10-02T14:28:10.373Z,1.33
2017-10-02T14:30:38.749Z,1.67
2017-10-02T14:33:07.131Z,0.75
2017-10-02T14:35:35.942Z,1.92
2017-10-02T14:38:04.330Z,0.80
2017-10-02T14:40:32.705Z,1.20
2017-10-02T14:43:01.346Z,2.35
2017-10-02T14:45:29.795Z,0.90
2017-10-02T14:47:58.183Z,2.60
2017-10-02T14:50:26.585Z,1.12
2017-10-02T14:52:54.958Z,1.10
2017-10-02T14:55:23.458Z,62.50
2017-10-02T14:57:51.893Z,48.13
2017-10-02T15:00:20.267Z,8.60
2017-10-02T15:02:48.639Z,2.37
2017-10-02T15:05:17.139Z,1.10
2017-10-02T15:07:45.517Z,2.22
2017-10-02T15:10:13.898Z,2.72
2017-10-02T15:12:42.303Z,3.05
2017-10-02T15:15:11.444Z,2.62
2017-10-02T15:17:39.823Z,1.60
2017-10-02T15:20:08.251Z,5.07
2017-10-02T15:22:36.633Z,2.92
2017-10-02T15:25:05.004Z,2.30
2017-10-02T15:27:33.410Z,1.35
2017-10-02T15:30:01.787Z,1.25
2017-10-02T15:32:30.552Z,3.10
2017-10-02T15:34:59.300Z,10.63
2017-10-02T15:37:27.683Z,14.57
2017-10-02T15:39:56.149Z,2.92
2017-10-02T15:42:24.575Z,6.68
2017-10-02T15:44:52.954Z,5.40
2017-10-02T15:47:21.532Z,11.45
2017-10-02T15:49:50.950Z,19.52
2017-10-02T15:52:20.125Z,14.15
2017-10-02T15:54:48.513Z,26.83
2017-10-02T15:57:16.927Z,13.00
2017-10-02T15:59:46.079Z,25.30
2017-10-02T16:02:14.871Z,34.55
2017-10-02T16:04:43.300Z,21.30
2017-10-02T16:07:12.443Z,6.68
2017-10-02T16:09:40.827Z,6.45
2017-10-02T16:12:09.303Z,12.77
2017-10-02T16:14:37.692Z,11.75
2017-10-02T16:17:06.114Z,7.70
2017-10-02T16:19:34.523Z,7.70
2017-10-02T16:22:02.905Z,8.60
2017-10-02T16:24:31.292Z,7.53
2017-10-02T16:26:59.788Z,7.97
2017-10-02T16:29:28.187Z,8.00
2017-10-02T16:31:56.565Z,7.07
2017-10-02T16:34:24.981Z,4.25
2017-10-02T16:36:53.367Z,2.90
2017-10-02T16:39:21.749Z,2.55
2017-10-02T16:41:50.161Z,2.47
2017-10-02T16:44:18.542Z,6.45
2017-10-02T16:46:46.926Z,2.47
2017-10-02T16:49:15.361Z,2.17
2017-10-02T16:51:44.508Z,2.15
2017-10-02T16:54:13.171Z,2.75
2017-10-02T16:56:41.588Z,1.80
2017-10-02T16:59:10.741Z,2.45
2017-10-02T17:01:39.513Z,2.92
2017-10-02T17:04:07.931Z,2.53
2017-10-02T17:06:36.600Z,3.75
2017-10-02T17:09:05.125Z,2.47
2017-10-02T17:11:33.600Z,4.12
2017-10-02T17:14:02.003Z,3.00
2017-10-02T17:16:30.385Z,3.62
2017-10-02T17:18:58.810Z,4.30
2017-10-02T17:21:27.232Z,1.60
2017-10-02T17:23:55.627Z,6.78
2017-10-02T17:26:24.097Z,3.42
2017-10-02T17:28:52.514Z,3.70
2017-10-02T17:31:20.930Z,3.25
2017-10-02T17:33:49.350Z,3.87
2017-10-02T17:36:17.716Z,3.50
2017-10-02T17:38:46.087Z,1.50
2017-10-02T17:41:14.496Z,7.03
2017-10-02T17:43:43.820Z,2.05
2017-10-02T17:46:12.230Z,2.72
2017-10-02T17:48:40.903Z,7.32
2017-10-02T17:51:10.286Z,2.42
2017-10-02T17:53:38.680Z,11.15
2017-10-02T17:56:07.159Z,6.03
2017-10-02T17:58:35.584Z,9.40
2017-10-02T18:01:03.979Z,4.32
2017-10-02T18:03:32.444Z,1.37
2017-10-02T18:06:00.851Z,3.05
2017-10-02T18:08:30.234Z,4.70
2017-10-02T18:10:58.674Z,5.30
2017-10-02T18:13:27.852Z,6.25
2017-10-02T18:15:56.227Z,2.03
2017-10-02T18:18:24.712Z,1.85
2017-10-02T18:20:53.197Z,2.60
2017-10-02T18:23:21.650Z,3.05
2017-10-02T18:25:50.123Z,1.50
2017-10-02T18:28:18.501Z,1.90
2017-10-02T18:30:46.903Z,12.52
2017-10-02T18:33:15.389Z,3.33
2017-10-02T18:35:43.790Z,2.55
2017-10-02T18:38:12.958Z,3.10
2017-10-02T18:40:41.654Z,2.45
2017-10-02T18:43:10.139Z,4.00
2017-10-02T18:45:38.986Z,10.57
2017-10-02T18:48:07.459Z,6.28
2017-10-02T18:50:36.186Z,3.70
2017-10-02T18:53:04.588Z,1.50
2017-10-02T18:55:34.023Z,5.40
2017-10-02T18:58:02.442Z,8.02
2017-10-02T19:00:31.002Z,4.72
2017-10-02T19:02:59.802Z,4.03
2017-10-02T19:05:28.212Z,8.60
2017-10-02T19:07:57.371Z,5.70
2017-10-02T19:10:25.779Z,3.22
2017-10-02T19:12:54.244Z,4.28
2017-10-02T19:15:22.657Z,3.10
2017-10-02T19:17:52.097Z,3.53
2017-10-02T19:20:20.547Z,2.87
2017-10-02T19:22:49.071Z,4.95
2017-10-02T19:25:17.659Z,5.45
2017-10-02T19:27:46.079Z,2.42
2017-10-02T19:30:15.963Z,6.45
2017-10-02T19:32:44.374Z,3.58
2017-10-02T19:35:13.524Z,4.10
2017-10-02T19:37:41.903Z,4.12
2017-10-02T19:40:11.171Z,3.72
2017-10-02T19:42:39.654Z,10.32
2017-10-02T19:45:08.035Z,5.22
2017-10-02T19:47:36.635Z,7.57
2017-10-02T19:50:05.012Z,13.18
2017-10-02T19:52:33.397Z,6.90
2017-10-02T19:55:01.843Z,8.80
2017-10-02T19:57:30.275Z,6.93
2017-10-02T19:59:58.679Z,7.15
2017-10-02T20:02:27.090Z,5.85
2017-10-02T20:04:55.471Z,12.23
2017-10-02T20:07:23.873Z,5.65
2017-10-02T20:09:52.299Z,4.07
2017-10-02T20:12:21.448Z,5.53
2017-10-02T20:14:49.907Z,10.93
2017-10-02T20:17:18.564Z,3.15
2017-10-02T20:19:46.966Z,4.90
2017-10-02T20:22:15.356Z,4.32
2017-10-02T20:24:43.784Z,3.92
2017-10-02T20:27:12.172Z,4.37
2017-10-02T20:29:41.351Z,5.43
2017-10-02T20:32:09.893Z,12.18
2017-10-02T20:34:38.305Z,17.15
2017-10-02T20:37:06.758Z,15.75
2017-10-02T20:39:35.187Z,15.27
2017-10-02T20:42:03.598Z,6.37
2017-10-02T20:44:32.050Z,10.10
2017-10-02T20:47:00.506Z,21.83
2017-10-02T20:49:29.121Z,14.73
2017-10-02T20:51:57.526Z,7.00
2017-10-02T20:54:26.090Z,13.52
2017-10-02T20:56:54.516Z,6.50
2017-10-02T20:59:22.895Z,4.37
2017-10-02T21:01:51.312Z,3.50
2017-10-02T21:04:19.694Z,8.27
2017-10-02T21:06:48.862Z,7.78
2017-10-02T21:09:17.275Z,6.00
2017-10-02T21:11:46.440Z,2.95
2017-10-02T21:14:14.817Z,3.12
2017-10-02T21:16:43.239Z,4.55
2017-10-02T21:19:11.642Z,6.43
2017-10-02T21:21:40.075Z,3.60
2017-10-02T21:24:08.752Z,4.90
2017-10-02T21:26:37.135Z,4.10
2017-10-02T21:29:05.532Z,4.07
2017-10-02T21:31:34.071Z,3.87
2017-10-02T21:34:02.456Z,4.85
2017-10-02T21:36:30.854Z,3.58
2017-10-02T21:38:59.292Z,3.65
2017-10-02T21:41:27.694Z,7.15
2017-10-02T21:43:56.070Z,3.92
2017-10-02T21:46:24.485Z,3.75
2017-10-02T21:48:52.887Z,5.75
2017-10-02T21:51:21.262Z,6.60
2017-10-02T21:53:49.671Z,17.87
2017-10-02T21:56:18.089Z,4.50
2017-10-02T21:58:46.529Z,9.75
2017-10-02T22:01:14.952Z,3.92
2017-10-02T22:03:44.104Z,7.15
2017-10-02T22:06:12.491Z,3.95
2017-10-02T22:08:40.963Z,8.38
2017-10-02T22:11:10.131Z,3.42
2017-10-02T22:13:38.507Z,4.62
2017-10-02T22:16:07.019Z,8.73
2017-10-02T22:18:35.395Z,8.13
2017-10-02T22:21:03.781Z,3.70
2017-10-02T22:23:32.208Z,5.65
2017-10-02T22:26:01.352Z,4.32
2017-10-02T22:28:29.730Z,6.07
2017-10-02T22:30:58.148Z,4.93
2017-10-02T22:33:26.522Z,3.28
2017-10-02T22:35:54.905Z,4.80
2017-10-02T22:38:23.313Z,5.45
2017-10-02T22:40:51.686Z,3.40
2017-10-02T22:43:20.826Z,3.90
2017-10-02T22:45:49.251Z,5.68
2017-10-02T22:48:18.393Z,4.10
2017-10-02T22:50:46.776Z,6.22
2017-10-02T22:53:15.194Z,6.10
2017-10-02T22:55:43.571Z,4.25
2017-10-02T22:58:11.958Z,6.18
2017-10-02T23:00:41.137Z,9.15
2017-10-02T23:03:09.516Z,18.40
2017-10-02T23:05:37.894Z,6.10
2017-10-02T23:08:06.324Z,3.60
2017-10-02T23:10:34.713Z,3.85
2017-10-02T23:13:03.082Z,3.70
2017-10-02T23:15:31.493Z,3.80
2017-10-02T23:17:59.867Z,9.43
2017-10-02T23:20:28.256Z,9.57
2017-10-02T23:22:56.682Z,3.47
2017-10-02T23:25:25.052Z,4.68
2017-10-02T23:27:54.191Z,9.43
2017-10-02T23:30:22.616Z,12.65
2017-10-02T23:32:51.755Z,6.40
2017-10-02T23:35:20.135Z,6.32
2017-10-02T23:37:48.542Z,14.52
2017-10-02T23:40:16.918Z,10.30
2017-10-02T23:42:45.296Z,5.72
2017-10-02T23:45:13.719Z,19.92
2017-10-02T23:47:42.866Z,6.72
2017-10-02T23:50:11.235Z,5.18
2017-10-02T23:52:39.917Z,16.05
2017-10-02T23:55:08.418Z,9.57
2017-10-02T23:57:36.798Z,6.55
